SAS77G EKCH-LIMC
Flight info
| Callsign | SAS77G |
|---|---|
| Flight time | 1h 53m |
| Altitude | 37000 |
| Route | NEXEN T503 MICOS DCT BOMBI DCT GIGET DCT ABUKA DCT KRH DCT NATOR DCT TRA DCT RIPUS DCT GERSA DCT SOSON DCT DEGAD DCT BASGO Z424 RIXUV |
| Aircraft | A320/M-SDE3FGHIRWY/LB1 |
Departure
| Time | 2026-05-05 17:36 |
|---|---|
| Airport | Copenhagen Kastrup Airport (EKCH) |
Arrival
| Time | 2026-05-05 19:29 |
|---|---|
| Airport | Milan Malpensa International Airport (LIMC) |
| Time | Latitude | Longitude | Altitude | Speed | Heading |
|---|---|---|---|---|---|
| 2026-05-05 16:57 | 55.62885 | 12.63869 | 19 ft | 0 kts | 12° |
| 2026-05-05 17:23 | 55.62884 | 12.63868 | 17 ft | 2 kts | 12° |
| 2026-05-05 17:23 | 55.62864 | 12.63861 | 17 ft | 4 kts | 18° |
| 2026-05-05 17:24 | 55.62845 | 12.63839 | 19 ft | 4 kts | 77° |
| 2026-05-05 17:24 | 55.62847 | 12.63797 | 20 ft | 4 kts | 104° |
| 2026-05-05 17:24 | 55.62853 | 12.63755 | 20 ft | 1 kts | 104° |
| 2026-05-05 17:24 | 55.62858 | 12.63714 | 18 ft | 4 kts | 96° |
| 2026-05-05 17:25 | 55.62859 | 12.63678 | 17 ft | 2 kts | 89° |
| 2026-05-05 17:25 | 55.62859 | 12.63675 | 17 ft | 0 kts | 89° |
| 2026-05-05 17:29 | 55.62859 | 12.63677 | 17 ft | 1 kts | 89° |
| 2026-05-05 17:29 | 55.62857 | 12.63723 | 19 ft | 6 kts | 99° |
| 2026-05-05 17:29 | 55.62845 | 12.63810 | 19 ft | 8 kts | 103° |
| 2026-05-05 17:29 | 55.62827 | 12.63920 | 17 ft | 10 kts | 118° |
| 2026-05-05 17:30 | 55.62761 | 12.63941 | 17 ft | 12 kts | 207° |
| 2026-05-05 17:30 | 55.62688 | 12.63859 | 17 ft | 13 kts | 213° |
| 2026-05-05 17:30 | 55.62600 | 12.63778 | 17 ft | 15 kts | 196° |
| 2026-05-05 17:30 | 55.62492 | 12.63789 | 17 ft | 17 kts | 160° |
| 2026-05-05 17:31 | 55.62401 | 12.63949 | 15 ft | 21 kts | 122° |
| 2026-05-05 17:31 | 55.62318 | 12.64173 | 14 ft | 24 kts | 123° |
| 2026-05-05 17:31 | 55.62257 | 12.64337 | 16 ft | 9 kts | 123° |
| 2026-05-05 17:31 | 55.62191 | 12.64411 | 15 ft | 15 kts | 169° |
| 2026-05-05 17:32 | 55.62086 | 12.64444 | 18 ft | 16 kts | 169° |
| 2026-05-05 17:32 | 55.61970 | 12.64483 | 17 ft | 19 kts | 169° |
| 2026-05-05 17:32 | 55.61834 | 12.64528 | 17 ft | 21 kts | 169° |
| 2026-05-05 17:32 | 55.61694 | 12.64563 | 17 ft | 17 kts | 185° |
| 2026-05-05 17:33 | 55.61586 | 12.64466 | 18 ft | 18 kts | 213° |
| 2026-05-05 17:33 | 55.61473 | 12.64335 | 18 ft | 21 kts | 213° |
| 2026-05-05 17:33 | 55.61346 | 12.64190 | 18 ft | 23 kts | 213° |
| 2026-05-05 17:33 | 55.61208 | 12.64030 | 17 ft | 25 kts | 213° |
| 2026-05-05 17:34 | 55.61063 | 12.63863 | 17 ft | 23 kts | 213° |
| 2026-05-05 17:34 | 55.60935 | 12.63715 | 17 ft | 22 kts | 213° |
| 2026-05-05 17:34 | 55.60823 | 12.63600 | 17 ft | 17 kts | 193° |
| 2026-05-05 17:34 | 55.60727 | 12.63711 | 17 ft | 18 kts | 130° |
| 2026-05-05 17:35 | 55.60684 | 12.63870 | 19 ft | 13 kts | 76° |
| 2026-05-05 17:35 | 55.60744 | 12.63976 | 19 ft | 16 kts | 41° |
| 2026-05-05 17:35 | 55.60988 | 12.64354 | 17 ft | 80 kts | 41° |
| 2026-05-05 17:35 | 55.61554 | 12.65229 | 18 ft | 134 kts | 41° |
| 2026-05-05 17:36 | 55.62341 | 12.66442 | 235 ft | 154 kts | 39° |
| 2026-05-05 17:36 | 55.63121 | 12.67666 | 898 ft | 150 kts | 39° |
| 2026-05-05 17:36 | 55.63907 | 12.68891 | 1497 ft | 154 kts | 39° |
| 2026-05-05 17:36 | 55.64771 | 12.70218 | 1779 ft | 174 kts | 39° |
| 2026-05-05 17:37 | 55.65733 | 12.71683 | 2085 ft | 192 kts | 38° |
| 2026-05-05 17:37 | 55.66811 | 12.73280 | 2410 ft | 213 kts | 38° |
| 2026-05-05 17:37 | 55.68008 | 12.75051 | 2779 ft | 236 kts | 38° |
| 2026-05-05 17:37 | 55.69118 | 12.77273 | 3495 ft | 248 kts | 58° |
| 2026-05-05 17:38 | 55.69700 | 12.80196 | 4284 ft | 259 kts | 80° |
| 2026-05-05 17:38 | 55.69603 | 12.83420 | 5113 ft | 268 kts | 103° |
| 2026-05-05 17:38 | 55.68795 | 12.86378 | 5915 ft | 276 kts | 127° |
| 2026-05-05 17:38 | 55.67314 | 12.88605 | 6670 ft | 284 kts | 154° |
| 2026-05-05 17:39 | 55.65466 | 12.89885 | 7452 ft | 287 kts | 162° |
| 2026-05-05 17:39 | 55.63567 | 12.91014 | 8281 ft | 288 kts | 170° |
| 2026-05-05 17:39 | 55.61588 | 12.91305 | 9099 ft | 285 kts | 188° |
| 2026-05-05 17:39 | 55.59672 | 12.90521 | 9922 ft | 282 kts | 206° |
| 2026-05-05 17:40 | 55.57987 | 12.88786 | 10515 ft | 287 kts | 222° |
| 2026-05-05 17:40 | 55.56512 | 12.86238 | 10691 ft | 307 kts | 229° |
| 2026-05-05 17:40 | 55.54997 | 12.83448 | 11160 ft | 317 kts | 229° |
| 2026-05-05 17:40 | 55.53466 | 12.80639 | 11818 ft | 320 kts | 228° |
| 2026-05-05 17:41 | 55.51920 | 12.77816 | 12530 ft | 322 kts | 228° |
| 2026-05-05 17:41 | 55.50388 | 12.74901 | 13260 ft | 323 kts | 231° |
| 2026-05-05 17:41 | 55.48924 | 12.71890 | 13960 ft | 325 kts | 232° |
| 2026-05-05 17:41 | 55.47500 | 12.68848 | 14578 ft | 326 kts | 233° |
| 2026-05-05 17:42 | 55.46057 | 12.65737 | 15192 ft | 329 kts | 233° |
| 2026-05-05 17:42 | 55.44599 | 12.62614 | 15793 ft | 331 kts | 233° |
| 2026-05-05 17:42 | 55.43126 | 12.59484 | 16397 ft | 333 kts | 233° |
| 2026-05-05 17:42 | 55.41638 | 12.56347 | 17001 ft | 335 kts | 232° |
| 2026-05-05 17:43 | 55.40128 | 12.53188 | 17604 ft | 338 kts | 232° |
| 2026-05-05 17:43 | 55.38608 | 12.50029 | 18216 ft | 340 kts | 232° |
| 2026-05-05 17:43 | 55.37072 | 12.46844 | 18757 ft | 342 kts | 232° |
| 2026-05-05 17:43 | 55.35529 | 12.43642 | 19305 ft | 345 kts | 232° |
| 2026-05-05 17:44 | 55.33972 | 12.40412 | 19870 ft | 347 kts | 232° |
| 2026-05-05 17:44 | 55.32404 | 12.37169 | 20436 ft | 349 kts | 232° |
| 2026-05-05 17:44 | 55.30823 | 12.33906 | 20980 ft | 351 kts | 232° |
| 2026-05-05 17:44 | 55.29237 | 12.30631 | 21511 ft | 353 kts | 232° |
| 2026-05-05 17:45 | 55.27644 | 12.27336 | 22043 ft | 355 kts | 232° |
| 2026-05-05 17:45 | 55.26036 | 12.24013 | 22563 ft | 358 kts | 232° |
| 2026-05-05 17:45 | 55.24419 | 12.20680 | 23088 ft | 360 kts | 232° |
| 2026-05-05 17:45 | 55.22787 | 12.17326 | 23599 ft | 362 kts | 232° |
| 2026-05-05 17:46 | 55.21164 | 12.14010 | 24014 ft | 365 kts | 231° |
| 2026-05-05 17:46 | 55.19291 | 12.10954 | 24418 ft | 371 kts | 221° |
| 2026-05-05 17:46 | 55.17198 | 12.08268 | 24798 ft | 374 kts | 220° |
| 2026-05-05 17:46 | 55.15065 | 12.05546 | 25008 ft | 381 kts | 220° |
| 2026-05-05 17:47 | 55.12910 | 12.02797 | 25309 ft | 385 kts | 220° |
| 2026-05-05 17:47 | 55.10734 | 12.00020 | 25663 ft | 387 kts | 220° |
| 2026-05-05 17:47 | 55.08554 | 11.97238 | 26027 ft | 389 kts | 220° |
| 2026-05-05 17:47 | 55.06366 | 11.94448 | 26390 ft | 391 kts | 220° |
| 2026-05-05 17:48 | 55.04197 | 11.91686 | 26753 ft | 393 kts | 220° |
| 2026-05-05 17:48 | 55.01985 | 11.88874 | 27113 ft | 394 kts | 220° |
| 2026-05-05 17:48 | 54.99760 | 11.86052 | 27473 ft | 396 kts | 220° |
| 2026-05-05 17:48 | 54.97528 | 11.83226 | 27826 ft | 398 kts | 220° |
| 2026-05-05 17:49 | 54.95279 | 11.80379 | 28190 ft | 400 kts | 220° |
| 2026-05-05 17:49 | 54.93032 | 11.77540 | 28561 ft | 399 kts | 220° |
| 2026-05-05 17:49 | 54.90787 | 11.74711 | 28972 ft | 399 kts | 220° |
| 2026-05-05 17:49 | 54.88542 | 11.71889 | 29478 ft | 396 kts | 220° |
| 2026-05-05 17:50 | 54.86316 | 11.69099 | 30011 ft | 394 kts | 220° |
| 2026-05-05 17:50 | 54.84092 | 11.66318 | 30461 ft | 392 kts | 220° |
| 2026-05-05 17:50 | 54.81884 | 11.63556 | 30854 ft | 391 kts | 220° |
| 2026-05-05 17:50 | 54.79705 | 11.60832 | 31234 ft | 391 kts | 220° |
| 2026-05-05 17:51 | 54.77506 | 11.58080 | 31609 ft | 390 kts | 220° |
| 2026-05-05 17:51 | 54.75311 | 11.55326 | 31997 ft | 390 kts | 220° |
| 2026-05-05 17:51 | 54.73104 | 11.52567 | 32387 ft | 390 kts | 220° |
| 2026-05-05 17:51 | 54.70902 | 11.49825 | 32749 ft | 389 kts | 220° |
| 2026-05-05 17:52 | 54.68709 | 11.47099 | 33227 ft | 386 kts | 220° |
| 2026-05-05 17:52 | 54.66529 | 11.44389 | 33677 ft | 385 kts | 220° |
| 2026-05-05 17:52 | 54.64359 | 11.41698 | 34055 ft | 384 kts | 220° |
| 2026-05-05 17:52 | 54.62191 | 11.39013 | 34357 ft | 384 kts | 220° |
| 2026-05-05 17:53 | 54.60015 | 11.36322 | 34615 ft | 385 kts | 220° |
| 2026-05-05 17:53 | 54.57864 | 11.33662 | 34864 ft | 386 kts | 220° |
| 2026-05-05 17:53 | 54.55670 | 11.30947 | 35092 ft | 387 kts | 220° |
| 2026-05-05 17:53 | 54.53475 | 11.28250 | 35331 ft | 388 kts | 219° |
| 2026-05-05 17:54 | 54.51272 | 11.25560 | 35566 ft | 389 kts | 219° |
| 2026-05-05 17:54 | 54.49055 | 11.22867 | 35810 ft | 390 kts | 219° |
| 2026-05-05 17:54 | 54.46833 | 11.20181 | 36036 ft | 390 kts | 219° |
| 2026-05-05 17:54 | 54.44613 | 11.17503 | 36297 ft | 389 kts | 219° |
| 2026-05-05 17:55 | 54.42388 | 11.14819 | 36543 ft | 390 kts | 219° |
| 2026-05-05 17:55 | 54.40172 | 11.12139 | 36757 ft | 390 kts | 219° |
| 2026-05-05 17:55 | 54.37968 | 11.09470 | 36898 ft | 392 kts | 219° |
| 2026-05-05 17:56 | 54.33447 | 11.04004 | 36921 ft | 403 kts | 218° |
| 2026-05-05 17:56 | 54.28470 | 10.99321 | 36921 ft | 417 kts | 203° |
| 2026-05-05 17:57 | 54.22951 | 10.96172 | 36916 ft | 418 kts | 202° |
| 2026-05-05 17:57 | 54.17440 | 10.93024 | 36918 ft | 417 kts | 202° |
| 2026-05-05 17:58 | 54.11944 | 10.89892 | 36919 ft | 417 kts | 202° |
| 2026-05-05 17:58 | 54.06432 | 10.86748 | 36927 ft | 417 kts | 202° |
| 2026-05-05 17:59 | 54.00952 | 10.83635 | 36919 ft | 418 kts | 202° |
| 2026-05-05 17:59 | 53.95436 | 10.80526 | 36933 ft | 417 kts | 202° |
| 2026-05-05 18:00 | 53.89921 | 10.77429 | 36937 ft | 417 kts | 202° |
| 2026-05-05 18:00 | 53.84418 | 10.74335 | 36940 ft | 417 kts | 202° |
| 2026-05-05 18:01 | 53.78924 | 10.71251 | 36945 ft | 416 kts | 202° |
| 2026-05-05 18:01 | 53.73422 | 10.68161 | 36921 ft | 416 kts | 202° |
| 2026-05-05 18:02 | 53.67924 | 10.65093 | 36925 ft | 416 kts | 202° |
| 2026-05-05 18:02 | 53.62444 | 10.62060 | 36923 ft | 416 kts | 202° |
| 2026-05-05 18:03 | 53.56941 | 10.59031 | 36919 ft | 416 kts | 202° |
| 2026-05-05 18:03 | 53.51434 | 10.55983 | 36900 ft | 416 kts | 202° |
| 2026-05-05 18:04 | 53.45917 | 10.52940 | 36896 ft | 417 kts | 201° |
| 2026-05-05 18:04 | 53.40437 | 10.49925 | 36903 ft | 417 kts | 201° |
| 2026-05-05 18:05 | 53.34917 | 10.46888 | 36907 ft | 418 kts | 201° |
| 2026-05-05 18:05 | 53.29393 | 10.43868 | 36907 ft | 418 kts | 201° |
| 2026-05-05 18:06 | 53.23859 | 10.40855 | 36897 ft | 418 kts | 201° |
| 2026-05-05 18:06 | 53.18320 | 10.37851 | 36903 ft | 418 kts | 201° |
| 2026-05-05 18:07 | 53.13713 | 10.35358 | 36903 ft | 418 kts | 201° |
| 2026-05-05 18:07 | 53.07280 | 10.31883 | 36903 ft | 418 kts | 201° |
| 2026-05-05 18:08 | 53.01747 | 10.28895 | 36908 ft | 418 kts | 201° |
| 2026-05-05 18:08 | 52.97104 | 10.26389 | 36909 ft | 418 kts | 201° |
| 2026-05-05 18:09 | 52.91600 | 10.23432 | 36909 ft | 418 kts | 201° |
| 2026-05-05 18:09 | 52.86054 | 10.20466 | 36914 ft | 418 kts | 201° |
| 2026-05-05 18:10 | 52.80514 | 10.17516 | 36896 ft | 418 kts | 201° |
| 2026-05-05 18:10 | 52.74966 | 10.14556 | 36898 ft | 418 kts | 201° |
| 2026-05-05 18:11 | 52.69424 | 10.11613 | 36880 ft | 418 kts | 201° |
| 2026-05-05 18:11 | 52.63916 | 10.08703 | 36881 ft | 418 kts | 201° |
| 2026-05-05 18:12 | 52.58357 | 10.05769 | 36883 ft | 418 kts | 201° |
| 2026-05-05 18:12 | 52.52819 | 10.02848 | 36877 ft | 418 kts | 200° |
| 2026-05-05 18:13 | 52.47310 | 9.99957 | 36878 ft | 418 kts | 200° |
| 2026-05-05 18:13 | 52.41769 | 9.97060 | 36889 ft | 418 kts | 200° |
| 2026-05-05 18:14 | 52.36220 | 9.94166 | 36892 ft | 418 kts | 200° |
| 2026-05-05 18:14 | 52.30669 | 9.91273 | 36874 ft | 418 kts | 199° |
| 2026-05-05 18:15 | 52.25119 | 9.88377 | 36877 ft | 418 kts | 199° |
| 2026-05-05 18:15 | 52.19610 | 9.85526 | 36876 ft | 418 kts | 199° |
| 2026-05-05 18:16 | 52.14053 | 9.82655 | 36867 ft | 418 kts | 199° |
| 2026-05-05 18:16 | 52.08508 | 9.79784 | 36862 ft | 418 kts | 199° |
| 2026-05-05 18:17 | 52.02957 | 9.76937 | 36860 ft | 418 kts | 199° |
| 2026-05-05 18:17 | 51.97415 | 9.74096 | 36853 ft | 418 kts | 199° |
| 2026-05-05 18:18 | 51.91871 | 9.71259 | 36851 ft | 418 kts | 199° |
| 2026-05-05 18:18 | 51.86322 | 9.68416 | 36843 ft | 418 kts | 198° |
| 2026-05-05 18:19 | 51.80777 | 9.65588 | 36848 ft | 418 kts | 198° |
| 2026-05-05 18:19 | 51.75260 | 9.62796 | 36839 ft | 418 kts | 198° |
| 2026-05-05 18:20 | 51.69698 | 9.59977 | 36833 ft | 418 kts | 198° |
| 2026-05-05 18:20 | 51.64152 | 9.57171 | 36821 ft | 418 kts | 198° |
| 2026-05-05 18:21 | 51.58591 | 9.54372 | 36816 ft | 419 kts | 198° |
| 2026-05-05 18:21 | 51.53022 | 9.51564 | 36816 ft | 419 kts | 198° |
| 2026-05-05 18:22 | 51.47440 | 9.48770 | 36818 ft | 420 kts | 198° |
| 2026-05-05 18:22 | 51.41902 | 9.46017 | 36814 ft | 420 kts | 198° |
| 2026-05-05 18:23 | 51.36252 | 9.43624 | 36821 ft | 420 kts | 192° |
| 2026-05-05 18:23 | 51.30488 | 9.41903 | 36817 ft | 420 kts | 191° |
| 2026-05-05 18:24 | 51.24735 | 9.40268 | 36816 ft | 420 kts | 191° |
| 2026-05-05 18:24 | 51.18974 | 9.38613 | 36813 ft | 420 kts | 191° |
| 2026-05-05 18:25 | 51.13223 | 9.36941 | 36820 ft | 420 kts | 191° |
| 2026-05-05 18:25 | 51.07468 | 9.35260 | 36823 ft | 420 kts | 191° |
| 2026-05-05 18:26 | 51.01707 | 9.33580 | 36825 ft | 420 kts | 191° |
| 2026-05-05 18:26 | 50.95994 | 9.31919 | 36825 ft | 420 kts | 191° |
| 2026-05-05 18:27 | 50.90234 | 9.30269 | 36819 ft | 421 kts | 190° |
| 2026-05-05 18:27 | 50.84469 | 9.28609 | 36817 ft | 421 kts | 190° |
| 2026-05-05 18:28 | 50.75805 | 9.26127 | 36823 ft | 422 kts | 190° |
| 2026-05-05 18:28 | 50.70026 | 9.24478 | 36828 ft | 422 kts | 190° |
| 2026-05-05 18:29 | 50.64239 | 9.22832 | 36822 ft | 422 kts | 190° |
| 2026-05-05 18:29 | 50.58459 | 9.21178 | 36814 ft | 421 kts | 190° |
| 2026-05-05 18:30 | 50.52704 | 9.19540 | 36816 ft | 421 kts | 190° |
| 2026-05-05 18:30 | 50.46960 | 9.17915 | 36814 ft | 422 kts | 190° |
| 2026-05-05 18:31 | 50.41187 | 9.16284 | 36819 ft | 423 kts | 190° |
| 2026-05-05 18:31 | 50.35387 | 9.14652 | 36821 ft | 423 kts | 190° |
| 2026-05-05 18:32 | 50.29590 | 9.13032 | 36829 ft | 423 kts | 190° |
| 2026-05-05 18:32 | 50.23803 | 9.11408 | 36822 ft | 424 kts | 189° |
| 2026-05-05 18:33 | 50.17970 | 9.09778 | 36819 ft | 425 kts | 189° |
| 2026-05-05 18:33 | 50.12185 | 9.08165 | 36821 ft | 425 kts | 189° |
| 2026-05-05 18:34 | 50.06351 | 9.06541 | 36826 ft | 426 kts | 189° |
| 2026-05-05 18:34 | 50.00514 | 9.04926 | 36822 ft | 426 kts | 189° |
| 2026-05-05 18:35 | 49.94671 | 9.03305 | 36825 ft | 427 kts | 189° |
| 2026-05-05 18:35 | 49.88813 | 9.01677 | 36833 ft | 427 kts | 189° |
| 2026-05-05 18:36 | 49.82958 | 9.00064 | 36842 ft | 428 kts | 190° |
| 2026-05-05 18:36 | 49.77087 | 8.98453 | 36838 ft | 428 kts | 190° |
| 2026-05-05 18:37 | 49.71227 | 8.96843 | 36844 ft | 429 kts | 190° |
| 2026-05-05 18:37 | 49.65389 | 8.95245 | 36843 ft | 429 kts | 190° |
| 2026-05-05 18:38 | 49.59500 | 8.93640 | 36844 ft | 429 kts | 190° |
| 2026-05-05 18:38 | 49.53610 | 8.92043 | 36846 ft | 429 kts | 190° |
| 2026-05-05 18:39 | 49.47736 | 8.90453 | 36848 ft | 429 kts | 190° |
| 2026-05-05 18:39 | 49.41850 | 8.88867 | 36850 ft | 429 kts | 190° |
| 2026-05-05 18:40 | 49.35993 | 8.87279 | 36855 ft | 430 kts | 190° |
| 2026-05-05 18:40 | 49.30099 | 8.85692 | 36845 ft | 429 kts | 190° |
| 2026-05-05 18:41 | 49.24223 | 8.84112 | 36846 ft | 429 kts | 190° |
| 2026-05-05 18:41 | 49.18340 | 8.82531 | 36840 ft | 429 kts | 190° |
| 2026-05-05 18:42 | 49.12456 | 8.80955 | 36841 ft | 429 kts | 190° |
| 2026-05-05 18:42 | 49.06576 | 8.79389 | 36844 ft | 429 kts | 190° |
| 2026-05-05 18:43 | 49.00689 | 8.77829 | 36844 ft | 429 kts | 190° |
| 2026-05-05 18:43 | 48.94812 | 8.76264 | 36844 ft | 429 kts | 190° |
| 2026-05-05 18:44 | 48.88922 | 8.74704 | 36849 ft | 429 kts | 190° |
| 2026-05-05 18:44 | 48.83071 | 8.73157 | 36848 ft | 429 kts | 190° |
| 2026-05-05 18:45 | 48.77193 | 8.71609 | 36852 ft | 429 kts | 190° |
| 2026-05-05 18:45 | 48.71312 | 8.70058 | 36855 ft | 429 kts | 191° |
| 2026-05-05 18:46 | 48.65433 | 8.68514 | 36857 ft | 429 kts | 191° |
| 2026-05-05 18:46 | 48.59560 | 8.66970 | 36858 ft | 428 kts | 191° |
| 2026-05-05 18:47 | 48.53675 | 8.65435 | 36861 ft | 428 kts | 190° |
| 2026-05-05 18:47 | 48.47793 | 8.63908 | 36861 ft | 428 kts | 191° |
| 2026-05-05 18:48 | 48.41918 | 8.62382 | 36860 ft | 428 kts | 191° |
| 2026-05-05 18:48 | 48.36080 | 8.60865 | 36865 ft | 428 kts | 191° |
| 2026-05-05 18:49 | 48.30205 | 8.59335 | 36870 ft | 428 kts | 191° |
| 2026-05-05 18:49 | 48.24333 | 8.57812 | 36870 ft | 428 kts | 191° |
| 2026-05-05 18:50 | 48.18461 | 8.56308 | 36871 ft | 428 kts | 191° |
| 2026-05-05 18:50 | 48.12582 | 8.54796 | 36876 ft | 428 kts | 191° |
| 2026-05-05 18:51 | 48.06713 | 8.53291 | 36882 ft | 428 kts | 191° |
| 2026-05-05 18:51 | 48.00849 | 8.51793 | 36881 ft | 427 kts | 191° |
| 2026-05-05 18:52 | 47.94986 | 8.50289 | 36889 ft | 427 kts | 191° |
| 2026-05-05 18:52 | 47.89146 | 8.48808 | 36890 ft | 427 kts | 191° |
| 2026-05-05 18:53 | 47.83301 | 8.47323 | 36893 ft | 427 kts | 191° |
| 2026-05-05 18:53 | 47.77443 | 8.45844 | 36897 ft | 427 kts | 191° |
| 2026-05-05 18:54 | 47.71593 | 8.44370 | 36901 ft | 427 kts | 191° |
| 2026-05-05 18:54 | 47.65654 | 8.44160 | 36899 ft | 430 kts | 177° |
| 2026-05-05 18:55 | 47.59715 | 8.45046 | 36903 ft | 430 kts | 177° |
| 2026-05-05 18:55 | 47.53801 | 8.45925 | 36903 ft | 430 kts | 177° |
| 2026-05-05 18:56 | 47.47858 | 8.46806 | 36896 ft | 429 kts | 177° |
| 2026-05-05 18:56 | 47.41911 | 8.47678 | 36898 ft | 429 kts | 178° |
| 2026-05-05 18:57 | 47.35959 | 8.48548 | 36903 ft | 429 kts | 178° |
| 2026-05-05 18:57 | 47.31001 | 8.49273 | 36905 ft | 429 kts | 178° |
| 2026-05-05 18:58 | 47.25052 | 8.50143 | 36902 ft | 429 kts | 178° |
| 2026-05-05 18:58 | 47.19100 | 8.51013 | 36908 ft | 430 kts | 178° |
| 2026-05-05 18:59 | 47.13143 | 8.51879 | 36923 ft | 430 kts | 178° |
| 2026-05-05 18:59 | 47.07175 | 8.52750 | 36938 ft | 430 kts | 178° |
| 2026-05-05 19:00 | 47.01220 | 8.53608 | 36942 ft | 430 kts | 178° |
| 2026-05-05 19:00 | 46.95296 | 8.54461 | 36954 ft | 430 kts | 178° |
| 2026-05-05 19:01 | 46.89347 | 8.55308 | 36966 ft | 429 kts | 178° |
| 2026-05-05 19:01 | 46.83854 | 8.56099 | 36862 ft | 430 kts | 178° |
| 2026-05-05 19:02 | 46.80888 | 8.56526 | 36494 ft | 425 kts | 179° |
| 2026-05-05 19:02 | 46.77941 | 8.56952 | 35843 ft | 423 kts | 179° |
| 2026-05-05 19:02 | 46.75140 | 8.57356 | 35241 ft | 423 kts | 180° |
| 2026-05-05 19:02 | 46.72826 | 8.57688 | 34668 ft | 423 kts | 180° |
| 2026-05-05 19:03 | 46.70200 | 8.58065 | 34007 ft | 424 kts | 180° |
| 2026-05-05 19:03 | 46.67263 | 8.58480 | 33122 ft | 424 kts | 180° |
| 2026-05-05 19:03 | 46.64332 | 8.58899 | 32324 ft | 423 kts | 180° |
| 2026-05-05 19:03 | 46.61410 | 8.59315 | 31723 ft | 418 kts | 180° |
| 2026-05-05 19:04 | 46.58526 | 8.59728 | 31154 ft | 414 kts | 180° |
| 2026-05-05 19:04 | 46.55674 | 8.60134 | 30598 ft | 411 kts | 180° |
| 2026-05-05 19:04 | 46.52833 | 8.60539 | 29998 ft | 408 kts | 180° |
| 2026-05-05 19:04 | 46.50013 | 8.60943 | 29367 ft | 403 kts | 180° |
| 2026-05-05 19:05 | 46.47248 | 8.61279 | 28813 ft | 394 kts | 185° |
| 2026-05-05 19:05 | 46.44606 | 8.60995 | 28280 ft | 382 kts | 194° |
| 2026-05-05 19:05 | 46.42072 | 8.59997 | 27741 ft | 374 kts | 204° |
| 2026-05-05 19:05 | 46.39758 | 8.58372 | 27222 ft | 366 kts | 213° |
| 2026-05-05 19:06 | 46.37606 | 8.56430 | 26703 ft | 362 kts | 213° |
| 2026-05-05 19:06 | 46.35467 | 8.54512 | 26181 ft | 359 kts | 213° |
| 2026-05-05 19:06 | 46.33349 | 8.52623 | 25696 ft | 356 kts | 213° |
| 2026-05-05 19:06 | 46.31247 | 8.50747 | 25206 ft | 355 kts | 213° |
| 2026-05-05 19:07 | 46.29084 | 8.49047 | 24738 ft | 355 kts | 205° |
| 2026-05-05 19:07 | 46.26717 | 8.48001 | 24257 ft | 357 kts | 193° |
| 2026-05-05 19:07 | 46.24245 | 8.47697 | 23790 ft | 359 kts | 182° |
| 2026-05-05 19:07 | 46.21744 | 8.48008 | 23274 ft | 360 kts | 179° |
| 2026-05-05 19:08 | 46.19289 | 8.48367 | 22790 ft | 358 kts | 179° |
| 2026-05-05 19:08 | 46.16808 | 8.48725 | 22127 ft | 360 kts | 178° |
| 2026-05-05 19:08 | 46.14270 | 8.49082 | 21338 ft | 369 kts | 178° |
| 2026-05-05 19:08 | 46.11738 | 8.49486 | 21086 ft | 362 kts | 174° |
| 2026-05-05 19:09 | 46.09313 | 8.50444 | 20987 ft | 364 kts | 164° |
| 2026-05-05 19:09 | 46.06950 | 8.51734 | 21003 ft | 364 kts | 164° |
| 2026-05-05 19:09 | 46.04573 | 8.53016 | 20995 ft | 364 kts | 164° |
| 2026-05-05 19:09 | 46.02197 | 8.54293 | 21003 ft | 363 kts | 164° |
| 2026-05-05 19:10 | 45.99828 | 8.55565 | 21001 ft | 363 kts | 164° |
| 2026-05-05 19:10 | 45.97463 | 8.56837 | 20986 ft | 363 kts | 164° |
| 2026-05-05 19:10 | 45.95130 | 8.58088 | 20575 ft | 361 kts | 164° |
| 2026-05-05 19:10 | 45.92791 | 8.59344 | 20149 ft | 357 kts | 164° |
| 2026-05-05 19:11 | 45.90434 | 8.60343 | 19739 ft | 347 kts | 175° |
| 2026-05-05 19:11 | 45.88062 | 8.60437 | 19315 ft | 337 kts | 190° |
| 2026-05-05 19:11 | 45.85782 | 8.59822 | 19027 ft | 328 kts | 194° |
| 2026-05-05 19:11 | 45.83558 | 8.59169 | 18667 ft | 324 kts | 194° |
| 2026-05-05 19:12 | 45.81356 | 8.58534 | 18287 ft | 321 kts | 194° |
| 2026-05-05 19:12 | 45.79172 | 8.57910 | 17856 ft | 318 kts | 194° |
| 2026-05-05 19:12 | 45.77040 | 8.57303 | 17431 ft | 315 kts | 194° |
| 2026-05-05 19:12 | 45.74881 | 8.56763 | 17004 ft | 315 kts | 187° |
| 2026-05-05 19:13 | 45.72694 | 8.56904 | 16587 ft | 317 kts | 176° |
| 2026-05-05 19:13 | 45.70517 | 8.57332 | 16176 ft | 315 kts | 176° |
| 2026-05-05 19:13 | 45.68345 | 8.57752 | 15758 ft | 313 kts | 176° |
| 2026-05-05 19:13 | 45.66194 | 8.58164 | 15333 ft | 312 kts | 176° |
| 2026-05-05 19:14 | 45.64041 | 8.58572 | 14909 ft | 311 kts | 176° |
| 2026-05-05 19:14 | 45.61891 | 8.58977 | 14494 ft | 311 kts | 176° |
| 2026-05-05 19:14 | 45.59749 | 8.59379 | 14114 ft | 311 kts | 175° |
| 2026-05-05 19:14 | 45.57619 | 8.59786 | 13701 ft | 310 kts | 174° |
| 2026-05-05 19:15 | 45.55494 | 8.60294 | 13240 ft | 310 kts | 172° |
| 2026-05-05 19:15 | 45.53373 | 8.60884 | 12792 ft | 310 kts | 171° |
| 2026-05-05 19:15 | 45.51272 | 8.61500 | 12280 ft | 303 kts | 171° |
| 2026-05-05 19:15 | 45.49241 | 8.62099 | 11770 ft | 294 kts | 171° |
| 2026-05-05 19:16 | 45.47264 | 8.62674 | 11267 ft | 286 kts | 171° |
| 2026-05-05 19:16 | 45.45341 | 8.63219 | 10776 ft | 279 kts | 171° |
| 2026-05-05 19:16 | 45.43483 | 8.63739 | 10289 ft | 273 kts | 171° |
| 2026-05-05 19:16 | 45.41640 | 8.64248 | 9803 ft | 267 kts | 171° |
| 2026-05-05 19:17 | 45.39822 | 8.64747 | 9270 ft | 263 kts | 171° |
| 2026-05-05 19:17 | 45.38043 | 8.65234 | 8751 ft | 259 kts | 171° |
| 2026-05-05 19:17 | 45.36290 | 8.65714 | 8239 ft | 255 kts | 171° |
| 2026-05-05 19:17 | 45.34553 | 8.66192 | 7776 ft | 252 kts | 171° |
| 2026-05-05 19:18 | 45.32816 | 8.66671 | 7487 ft | 257 kts | 171° |
| 2026-05-05 19:18 | 45.31043 | 8.67159 | 7214 ft | 260 kts | 170° |
| 2026-05-05 19:18 | 45.29271 | 8.67650 | 6958 ft | 260 kts | 170° |
| 2026-05-05 19:18 | 45.27486 | 8.68146 | 6691 ft | 263 kts | 170° |
| 2026-05-05 19:19 | 45.25676 | 8.68643 | 6427 ft | 266 kts | 170° |
| 2026-05-05 19:19 | 45.23839 | 8.69147 | 6141 ft | 271 kts | 170° |
| 2026-05-05 19:19 | 45.21993 | 8.69651 | 6017 ft | 268 kts | 170° |
| 2026-05-05 19:19 | 45.20214 | 8.70137 | 6017 ft | 259 kts | 170° |
| 2026-05-05 19:20 | 45.18465 | 8.70615 | 6004 ft | 254 kts | 170° |
| 2026-05-05 19:20 | 45.16731 | 8.71089 | 6004 ft | 254 kts | 170° |
| 2026-05-05 19:20 | 45.15037 | 8.71762 | 6006 ft | 255 kts | 153° |
| 2026-05-05 19:20 | 45.13726 | 8.73426 | 6004 ft | 254 kts | 123° |
| 2026-05-05 19:21 | 45.13183 | 8.75774 | 6009 ft | 255 kts | 94° |
| 2026-05-05 19:21 | 45.13543 | 8.78230 | 6011 ft | 259 kts | 63° |
| 2026-05-05 19:21 | 45.14725 | 8.80147 | 6010 ft | 262 kts | 33° |
| 2026-05-05 19:21 | 45.16396 | 8.81145 | 6011 ft | 262 kts | 16° |
| 2026-05-05 19:22 | 45.18136 | 8.81806 | 6009 ft | 262 kts | 14° |
| 2026-05-05 19:22 | 45.19908 | 8.82437 | 5971 ft | 263 kts | 14° |
| 2026-05-05 19:22 | 45.21698 | 8.83067 | 5622 ft | 265 kts | 14° |
| 2026-05-05 19:22 | 45.23467 | 8.83677 | 5350 ft | 259 kts | 11° |
| 2026-05-05 19:23 | 45.25249 | 8.83739 | 5119 ft | 256 kts | 351° |
| 2026-05-05 19:23 | 45.26968 | 8.83284 | 4869 ft | 246 kts | 347° |
| 2026-05-05 19:23 | 45.28634 | 8.82792 | 4615 ft | 242 kts | 348° |
| 2026-05-05 19:23 | 45.30280 | 8.82335 | 4358 ft | 241 kts | 348° |
| 2026-05-05 19:24 | 45.31918 | 8.81888 | 4250 ft | 240 kts | 349° |
| 2026-05-05 19:24 | 45.33560 | 8.81441 | 4247 ft | 240 kts | 349° |
| 2026-05-05 19:24 | 45.35202 | 8.80992 | 4246 ft | 240 kts | 348° |
| 2026-05-05 19:24 | 45.36842 | 8.80544 | 4243 ft | 240 kts | 348° |
| 2026-05-05 19:25 | 45.38465 | 8.80100 | 4212 ft | 241 kts | 349° |
| 2026-05-05 19:25 | 45.40109 | 8.79650 | 4185 ft | 240 kts | 349° |
| 2026-05-05 19:25 | 45.41754 | 8.79199 | 4162 ft | 240 kts | 349° |
| 2026-05-05 19:25 | 45.43395 | 8.78750 | 4132 ft | 240 kts | 349° |
| 2026-05-05 19:26 | 45.45034 | 8.78300 | 4002 ft | 239 kts | 349° |
| 2026-05-05 19:26 | 45.46650 | 8.77857 | 3721 ft | 232 kts | 349° |
| 2026-05-05 19:26 | 45.48204 | 8.77430 | 3437 ft | 224 kts | 349° |
| 2026-05-05 19:26 | 45.49693 | 8.77021 | 3141 ft | 217 kts | 349° |
| 2026-05-05 19:27 | 45.51169 | 8.76616 | 2857 ft | 210 kts | 350° |
| 2026-05-05 19:27 | 45.52564 | 8.76232 | 2577 ft | 201 kts | 350° |
| 2026-05-05 19:27 | 45.53930 | 8.75856 | 2316 ft | 198 kts | 351° |
| 2026-05-05 19:27 | 45.55266 | 8.75488 | 2087 ft | 191 kts | 351° |
| 2026-05-05 19:28 | 45.56538 | 8.75137 | 1774 ft | 180 kts | 351° |
| 2026-05-05 19:28 | 45.57734 | 8.74808 | 1495 ft | 169 kts | 350° |
| 2026-05-05 19:28 | 45.58822 | 8.74508 | 1297 ft | 150 kts | 349° |
| 2026-05-05 19:28 | 45.59811 | 8.74236 | 1098 ft | 140 kts | 349° |
| 2026-05-05 19:29 | 45.60756 | 8.73975 | 925 ft | 137 kts | 349° |
| 2026-05-05 19:29 | 45.61688 | 8.73718 | 769 ft | 136 kts | 348° |
| 2026-05-05 19:29 | 45.62491 | 8.73496 | 747 ft | 83 kts | 349° |
| 2026-05-05 19:29 | 45.62922 | 8.73378 | 744 ft | 47 kts | 349° |
| 2026-05-05 19:30 | 45.63148 | 8.73250 | 743 ft | 28 kts | 324° |
| 2026-05-05 19:30 | 45.63251 | 8.73091 | 748 ft | 18 kts | 303° |
| 2026-05-05 19:30 | 45.63319 | 8.72945 | 750 ft | 18 kts | 304° |
| 2026-05-05 19:30 | 45.63381 | 8.72816 | 751 ft | 12 kts | 304° |
| 2026-05-05 19:31 | 45.63413 | 8.72721 | 767 ft | 9 kts | 281° |
| 2026-05-05 19:31 | 45.63407 | 8.72633 | 752 ft | 10 kts | 258° |
| 2026-05-05 19:31 | 45.63392 | 8.72526 | 752 ft | 12 kts | 259° |
| 2026-05-05 19:31 | 45.63374 | 8.72399 | 747 ft | 14 kts | 259° |
| 2026-05-05 19:32 | 45.63357 | 8.72269 | 746 ft | 11 kts | 259° |
| 2026-05-05 19:32 | 45.63346 | 8.72186 | 745 ft | 7 kts | 259° |
| 2026-05-05 19:32 | 45.63340 | 8.72141 | 747 ft | 1 kts | 259° |
| 2026-05-05 19:32 | 45.63340 | 8.72137 | 748 ft | 0 kts | 259° |
| 2026-05-05 19:33 | 45.63339 | 8.72135 | 748 ft | 2 kts | 259° |
| 2026-05-05 19:33 | 45.63334 | 8.72095 | 748 ft | 4 kts | 259° |
| 2026-05-05 19:34 | 45.63326 | 8.72037 | 749 ft | 8 kts | 259° |
| 2026-05-05 19:34 | 45.63291 | 8.71971 | 750 ft | 10 kts | 198° |
| 2026-05-05 19:34 | 45.63204 | 8.71988 | 750 ft | 14 kts | 169° |
| 2026-05-05 19:35 | 45.62979 | 8.72050 | 749 ft | 19 kts | 169° |
| 2026-05-05 19:35 | 45.62855 | 8.72085 | 752 ft | 15 kts | 169° |
| 2026-05-05 19:35 | 45.62753 | 8.72113 | 749 ft | 15 kts | 169° |
| 2026-05-05 19:35 | 45.62640 | 8.72144 | 750 ft | 18 kts | 169° |
| 2026-05-05 19:36 | 45.62510 | 8.72180 | 748 ft | 20 kts | 169° |
| 2026-05-05 19:36 | 45.62395 | 8.72198 | 752 ft | 13 kts | 201° |
| 2026-05-05 19:36 | 45.62359 | 8.72075 | 753 ft | 15 kts | 259° |
| 2026-05-05 19:36 | 45.62338 | 8.71919 | 748 ft | 16 kts | 259° |
| 2026-05-05 19:37 | 45.62321 | 8.71793 | 750 ft | 11 kts | 259° |
| 2026-05-05 19:37 | 45.62336 | 8.71734 | 748 ft | 7 kts | 334° |
| 2026-05-05 19:37 | 45.62375 | 8.71720 | 751 ft | 2 kts | 349° |
| 2026-05-05 19:37 | 45.62384 | 8.71718 | 748 ft | 0 kts | 349° |